createdAt,value
2018-04-26T00:00:31.458Z,22.50
2018-04-26T00:03:00.388Z,21.43
2018-04-26T00:05:29.429Z,20.30
2018-04-26T00:07:58.496Z,20.83
2018-04-26T00:10:27.575Z,19.37
2018-04-26T00:12:56.841Z,21.97
2018-04-26T00:15:26.090Z,21.63
2018-04-26T00:17:55.272Z,20.97
2018-04-26T00:20:24.369Z,20.93
2018-04-26T00:22:53.567Z,22.50
2018-04-26T00:25:22.707Z,21.33
2018-04-26T00:27:51.873Z,20.60
2018-04-26T00:30:20.992Z,21.60
2018-04-26T00:32:50.051Z,21.30
2018-04-26T00:35:19.374Z,21.07
2018-04-26T00:37:48.607Z,21.00
2018-04-26T00:40:17.674Z,21.93
2018-04-26T00:42:46.852Z,22.03
2018-04-26T00:45:16.187Z,22.13
2018-04-26T00:47:45.311Z,21.17
2018-04-26T00:50:14.461Z,20.83
2018-04-26T00:52:44.318Z,25.37
2018-04-26T00:55:13.571Z,20.47
2018-04-26T00:57:42.873Z,22.43
2018-04-26T01:00:12.001Z,22.50
2018-04-26T01:02:41.159Z,20.07
2018-04-26T01:05:10.261Z,22.23
2018-04-26T01:07:39.484Z,24.07
2018-04-26T01:10:08.819Z,21.67
2018-04-26T01:12:37.956Z,20.90
2018-04-26T01:15:07.159Z,22.83
2018-04-26T01:17:36.405Z,20.87
2018-04-26T01:20:05.550Z,21.60
2018-04-26T01:22:34.477Z,21.50
2018-04-26T01:25:03.540Z,23.00
2018-04-26T01:27:32.992Z,22.50
2018-04-26T01:30:02.094Z,23.57
2018-04-26T01:32:31.211Z,22.37
2018-04-26T01:35:00.599Z,20.57
2018-04-26T01:37:41.393Z,21.13
2018-04-26T01:40:10.880Z,24.23
2018-04-26T01:42:39.873Z,20.60
2018-04-26T01:45:08.899Z,21.63
2018-04-26T01:47:38.040Z,22.53
2018-04-26T01:50:08.019Z,21.53
2018-04-26T01:52:37.101Z,20.03
2018-04-26T01:55:06.072Z,19.57
2018-04-26T01:57:35.152Z,21.40
2018-04-26T02:00:04.975Z,18.27
2018-04-26T02:02:34.045Z,18.53
2018-04-26T02:05:03.098Z,18.30
2018-04-26T02:07:32.252Z,19.40
2018-04-26T02:10:01.595Z,19.27
2018-04-26T02:12:30.982Z,19.23
2018-04-26T02:15:00.057Z,20.07
2018-04-26T02:17:29.078Z,19.47
2018-04-26T02:19:58.331Z,23.00
2018-04-26T02:22:27.496Z,19.30
2018-04-26T02:24:56.776Z,19.40
2018-04-26T02:27:25.956Z,20.93
2018-04-26T02:29:55.001Z,21.73
2018-04-26T02:32:24.016Z,20.77
2018-04-26T02:34:52.993Z,23.20
2018-04-26T02:37:22.148Z,20.73
2018-04-26T02:39:52.492Z,26.70
2018-04-26T02:42:21.613Z,21.80
2018-04-26T02:44:50.772Z,20.90
2018-04-26T02:47:19.932Z,20.77
2018-04-26T02:49:48.903Z,22.30
2018-04-26T02:52:18.032Z,22.30
2018-04-26T02:54:47.040Z,21.00
2018-04-26T02:57:16.194Z,25.13
2018-04-26T02:59:45.150Z,23.00
2018-04-26T03:02:14.218Z,22.20
2018-04-26T03:04:43.257Z,27.50
2018-04-26T03:07:12.442Z,24.73
2018-04-26T03:09:41.756Z,34.40
2018-04-26T03:12:10.896Z,25.50
2018-04-26T03:14:39.905Z,25.80
2018-04-26T03:17:09.082Z,22.23
2018-04-26T03:19:38.046Z,27.87
2018-04-26T03:22:07.747Z,25.23
2018-04-26T03:24:36.905Z,24.87
2018-04-26T03:27:05.987Z,26.50
2018-04-26T03:29:36.638Z,27.13
2018-04-26T03:32:05.630Z,28.70
2018-04-26T03:34:34.700Z,26.20
2018-04-26T03:37:03.822Z,26.70
2018-04-26T03:39:33.227Z,27.17
2018-04-26T03:42:02.254Z,25.40
2018-04-26T03:44:31.400Z,24.93
2018-04-26T03:47:00.656Z,40.23
2018-04-26T03:49:29.884Z,33.13
2018-04-26T03:51:59.055Z,23.87
2018-04-26T03:54:28.152Z,26.50
2018-04-26T03:56:57.360Z,25.30
2018-04-26T03:59:26.510Z,23.67
2018-04-26T04:02:07.224Z,26.33
2018-04-26T04:04:47.506Z,25.50
2018-04-26T04:07:16.640Z,20.17
2018-04-26T04:09:45.900Z,22.83
2018-04-26T04:12:15.140Z,22.70
2018-04-26T04:14:44.244Z,19.13
2018-04-26T04:17:13.428Z,29.93
2018-04-26T04:19:42.465Z,20.67
2018-04-26T04:22:11.518Z,25.10
2018-04-26T04:24:40.597Z,18.67
2018-04-26T04:27:09.765Z,30.77
2018-04-26T04:29:39.113Z,19.77
2018-04-26T04:32:08.265Z,21.00
2018-04-26T04:34:37.407Z,29.00
2018-04-26T04:37:06.523Z,21.37
2018-04-26T04:39:35.592Z,21.50
2018-04-26T04:42:04.901Z,19.20
2018-04-26T04:44:34.101Z,23.87
2018-04-26T04:47:03.349Z,25.10
2018-04-26T04:49:32.654Z,18.53
2018-04-26T04:52:01.850Z,22.37
2018-04-26T04:54:31.632Z,25.07
2018-04-26T04:57:00.611Z,23.57
2018-04-26T04:59:29.701Z,20.77
2018-04-26T05:01:58.991Z,25.47
2018-04-26T05:04:28.051Z,20.10
2018-04-26T05:06:57.048Z,17.60
2018-04-26T05:09:26.396Z,20.17
2018-04-26T05:11:55.535Z,19.40
2018-04-26T05:14:24.735Z,22.40
2018-04-26T05:16:54.213Z,17.07
2018-04-26T05:19:23.396Z,23.40
2018-04-26T05:21:52.481Z,17.37
2018-04-26T05:24:21.605Z,19.43
2018-04-26T05:26:51.058Z,20.27
2018-04-26T05:29:20.227Z,20.57
2018-04-26T05:31:49.337Z,22.07
2018-04-26T05:34:18.481Z,22.57
2018-04-26T05:36:47.707Z,19.03
2018-04-26T05:39:17.436Z,18.47
2018-04-26T05:41:46.672Z,22.73
2018-04-26T05:44:15.752Z,18.67
2018-04-26T05:46:44.957Z,18.00
2018-04-26T05:49:14.298Z,19.43
2018-04-26T05:51:43.452Z,18.47
2018-04-26T05:54:13.058Z,17.77
2018-04-26T05:56:42.224Z,18.63
2018-04-26T05:59:11.345Z,20.77
2018-04-26T06:01:40.537Z,17.23
2018-04-26T06:04:09.763Z,20.03
2018-04-26T06:06:38.767Z,18.87
2018-04-26T06:09:08.172Z,19.97
2018-04-26T06:11:37.400Z,19.90
2018-04-26T06:14:06.360Z,19.97
2018-04-26T06:16:35.679Z,19.60
2018-04-26T06:19:04.715Z,22.43
2018-04-26T06:21:34.038Z,21.40
2018-04-26T06:24:03.401Z,19.20
2018-04-26T06:26:32.401Z,20.70
2018-04-26T06:29:01.530Z,18.90
2018-04-26T06:34:15.691Z,20.73
2018-04-26T06:36:44.921Z,25.50
2018-04-26T06:39:14.448Z,24.13
2018-04-26T06:41:43.526Z,29.20
2018-04-26T06:44:12.793Z,23.90
2018-04-26T06:46:42.051Z,21.87
2018-04-26T06:49:11.300Z,21.33
2018-04-26T06:51:40.550Z,22.47
2018-04-26T06:54:09.843Z,21.67
2018-04-26T06:56:39.049Z,19.27
2018-04-26T06:59:08.090Z,19.37
2018-04-26T07:01:37.337Z,16.03
2018-04-26T07:04:06.860Z,20.17
2018-04-26T07:06:36.150Z,17.47
2018-04-26T07:09:06.257Z,19.37
2018-04-26T07:11:35.461Z,20.00
2018-04-26T07:14:04.490Z,19.33
2018-04-26T07:16:33.867Z,17.10
2018-04-26T07:19:03.064Z,16.93
2018-04-26T07:21:32.174Z,20.47
2018-04-26T07:24:01.532Z,18.90
2018-04-26T07:26:30.653Z,21.27
2018-04-26T07:28:59.772Z,24.63
2018-04-26T07:31:29.407Z,18.13
2018-04-26T07:33:58.616Z,26.83
2018-04-26T07:36:28.268Z,15.63
2018-04-26T07:38:57.472Z,18.87
2018-04-26T07:41:27.085Z,17.63
2018-04-26T07:43:56.537Z,19.20
2018-04-26T07:46:25.894Z,17.37
2018-04-26T07:48:55.041Z,18.23
2018-04-26T07:51:24.393Z,19.07
2018-04-26T07:53:53.576Z,12.57
2018-04-26T07:56:22.788Z,15.50
2018-04-26T07:58:52.038Z,12.97
2018-04-26T08:01:21.191Z,9.30
2018-04-26T08:03:50.556Z,19.97
2018-04-26T08:06:19.781Z,14.33
2018-04-26T08:08:49.169Z,12.97
2018-04-26T08:11:18.254Z,13.17
2018-04-26T08:13:47.351Z,11.53
2018-04-26T08:16:16.450Z,23.70
2018-04-26T08:18:45.453Z,15.00
2018-04-26T08:21:14.516Z,11.70
2018-04-26T08:23:43.774Z,10.73
2018-04-26T08:26:13.038Z,11.13
2018-04-26T08:28:42.062Z,13.53
2018-04-26T08:31:11.140Z,13.80
2018-04-26T08:33:40.466Z,15.63
2018-04-26T08:36:09.770Z,13.87
2018-04-26T08:38:38.950Z,11.03
2018-04-26T08:41:08.377Z,15.37
2018-04-26T08:43:37.508Z,11.40
2018-04-26T08:46:06.544Z,10.73
2018-04-26T08:48:35.695Z,10.53
2018-04-26T08:51:04.788Z,14.83
2018-04-26T08:53:33.998Z,9.17
2018-04-26T08:56:03.254Z,11.57
2018-04-26T08:58:32.278Z,10.80
2018-04-26T09:01:01.277Z,8.93
2018-04-26T09:03:30.404Z,12.00
2018-04-26T09:05:59.529Z,12.53
2018-04-26T09:08:28.718Z,12.97
2018-04-26T09:10:57.751Z,10.30
2018-04-26T09:13:27.191Z,8.33
2018-04-26T09:15:56.514Z,20.00
2018-04-26T09:18:25.612Z,10.20
2018-04-26T09:20:55.818Z,8.37
2018-04-26T09:23:25.639Z,13.60
2018-04-26T09:25:54.911Z,10.03
2018-04-26T09:28:24.158Z,11.43
2018-04-26T09:30:53.362Z,11.17
2018-04-26T09:33:22.620Z,15.40
2018-04-26T09:35:51.693Z,16.03
2018-04-26T09:38:20.897Z,14.97
2018-04-26T09:40:50.108Z,13.20
2018-04-26T09:43:19.555Z,13.97
2018-04-26T09:45:48.673Z,18.63
2018-04-26T09:48:17.748Z,15.03
2018-04-26T09:50:46.976Z,10.40
2018-04-26T09:53:16.196Z,12.27
2018-04-26T09:55:45.419Z,9.77
2018-04-26T09:58:14.581Z,12.27
2018-04-26T10:00:43.666Z,11.77
2018-04-26T10:03:12.868Z,12.00
2018-04-26T10:05:47.848Z,11.47
2018-04-26T10:08:17.045Z,8.93
2018-04-26T10:10:46.215Z,10.20
2018-04-26T10:13:15.413Z,8.93
2018-04-26T10:15:44.844Z,8.20
2018-04-26T10:18:14.084Z,10.40
2018-04-26T10:20:43.346Z,9.93
2018-04-26T10:23:13.584Z,9.33
2018-04-26T10:25:42.769Z,10.97
2018-04-26T10:28:12.047Z,8.90
2018-04-26T10:30:41.258Z,9.47
2018-04-26T10:33:10.406Z,9.90
2018-04-26T10:35:40.952Z,7.90
2018-04-26T10:38:10.237Z,13.33
2018-04-26T10:40:39.325Z,13.23
2018-04-26T10:43:08.515Z,6.63
2018-04-26T10:45:37.556Z,10.33
2018-04-26T10:48:06.712Z,12.97
2018-04-26T10:50:36.076Z,9.27
2018-04-26T10:53:05.652Z,11.00
2018-04-26T10:55:35.013Z,9.20
2018-04-26T10:58:04.032Z,10.20
2018-04-26T11:00:33.075Z,7.67
2018-04-26T11:03:02.111Z,7.10
2018-04-26T11:05:31.124Z,10.43
2018-04-26T11:08:00.466Z,8.93
2018-04-26T11:10:29.660Z,13.53
2018-04-26T11:12:58.900Z,9.20
2018-04-26T11:15:28.311Z,16.70
2018-04-26T11:17:57.280Z,9.07
2018-04-26T11:20:26.672Z,9.93
2018-04-26T11:22:55.830Z,12.07
2018-04-26T11:25:24.935Z,11.43
2018-04-26T11:27:54.020Z,12.27
2018-04-26T11:30:23.147Z,10.73
2018-04-26T11:32:52.179Z,9.83
2018-04-26T11:35:21.681Z,16.53
2018-04-26T11:37:51.071Z,7.17
2018-04-26T11:40:20.230Z,10.50
2018-04-26T11:42:49.575Z,8.80
2018-04-26T11:45:18.950Z,7.60
2018-04-26T11:47:48.470Z,9.40
2018-04-26T11:50:17.467Z,11.53
2018-04-26T11:52:46.752Z,11.20
2018-04-26T11:55:15.774Z,8.00
2018-04-26T11:57:45.162Z,12.17
2018-04-26T12:00:14.284Z,9.03
2018-04-26T12:02:43.765Z,10.10
2018-04-26T12:05:13.892Z,10.30
2018-04-26T12:07:42.946Z,9.07
2018-04-26T12:10:12.457Z,8.50
2018-04-26T12:12:41.784Z,9.10
2018-04-26T12:15:11.803Z,6.47
2018-04-26T12:17:40.999Z,10.33
2018-04-26T12:20:10.320Z,11.00
2018-04-26T12:22:39.428Z,7.80
2018-04-26T12:25:09.407Z,11.97
2018-04-26T12:27:39.660Z,10.97
2018-04-26T12:30:08.967Z,9.20
2018-04-26T12:32:38.581Z,10.07
2018-04-26T12:35:08.210Z,6.03
2018-04-26T12:37:37.692Z,10.57
2018-04-26T12:40:07.044Z,8.83
2018-04-26T12:42:36.176Z,8.43
2018-04-26T12:45:05.494Z,11.40
2018-04-26T12:47:34.491Z,8.43
2018-04-26T12:50:03.684Z,12.57
2018-04-26T12:52:32.927Z,9.57
2018-04-26T12:55:02.189Z,12.67
2018-04-26T12:57:31.456Z,10.87
2018-04-26T13:00:00.561Z,9.90
2018-04-26T13:02:29.612Z,7.60
2018-04-26T13:04:58.788Z,8.23
2018-04-26T13:07:28.257Z,9.77
2018-04-26T13:09:57.858Z,9.30
2018-04-26T13:12:26.877Z,9.03
2018-04-26T13:14:56.334Z,9.90
2018-04-26T13:17:25.426Z,8.33
2018-04-26T13:19:54.361Z,10.30
2018-04-26T13:22:23.589Z,10.23
2018-04-26T13:24:52.850Z,10.93
2018-04-26T13:27:22.253Z,7.47
2018-04-26T13:29:51.559Z,9.60
2018-04-26T13:32:21.485Z,10.80
2018-04-26T13:34:50.886Z,8.43
2018-04-26T13:37:20.072Z,7.17
2018-04-26T13:39:49.445Z,6.63
2018-04-26T13:42:18.736Z,12.50
2018-04-26T13:44:47.724Z,10.13
2018-04-26T13:47:17.224Z,7.90
2018-04-26T13:49:46.328Z,7.73
2018-04-26T13:52:15.736Z,8.47
2018-04-26T13:54:45.049Z,8.43
2018-04-26T13:57:14.044Z,8.57
2018-04-26T13:59:43.053Z,6.43
2018-04-26T14:02:12.361Z,5.80
2018-04-26T14:04:41.664Z,6.87
2018-04-26T14:07:11.144Z,8.73
2018-04-26T14:09:40.394Z,6.73
2018-04-26T14:12:09.842Z,8.03
2018-04-26T14:14:39.345Z,6.60
2018-04-26T14:17:08.652Z,7.77
2018-04-26T14:19:37.909Z,6.23
2018-04-26T14:22:07.142Z,6.87
2018-04-26T14:24:36.473Z,7.67
2018-04-26T14:27:05.716Z,7.53
2018-04-26T14:29:35.232Z,6.83
2018-04-26T14:32:04.767Z,5.83
2018-04-26T14:34:33.961Z,6.93
2018-04-26T14:37:03.471Z,6.27
2018-04-26T14:39:32.984Z,7.17
2018-04-26T14:42:02.203Z,5.77
2018-04-26T14:44:31.560Z,5.17
2018-04-26T14:47:01.072Z,10.43
2018-04-26T14:49:30.552Z,10.33
2018-04-26T14:51:59.750Z,8.80
2018-04-26T14:54:29.349Z,8.07
2018-04-26T14:56:58.716Z,7.63
2018-04-26T14:59:27.956Z,10.80
2018-04-26T15:01:57.258Z,6.83
2018-04-26T15:04:26.565Z,10.70
2018-04-26T15:06:55.905Z,8.90
2018-04-26T15:09:25.375Z,9.53
2018-04-26T15:11:54.711Z,7.70
2018-04-26T15:14:24.181Z,10.33
2018-04-26T15:16:53.469Z,8.20
2018-04-26T15:19:22.797Z,10.03
2018-04-26T15:21:52.179Z,8.47
2018-04-26T15:24:21.313Z,9.37
2018-04-26T15:26:50.513Z,10.37
2018-04-26T15:29:19.772Z,8.67
2018-04-26T15:31:49.013Z,10.70
2018-04-26T15:34:18.325Z,12.03
2018-04-26T15:36:47.639Z,8.03
2018-04-26T15:39:16.877Z,7.77
2018-04-26T15:41:46.349Z,8.67
2018-04-26T15:44:15.733Z,7.53
2018-04-26T15:46:44.969Z,10.37
2018-04-26T15:49:14.197Z,9.90
2018-04-26T15:51:43.605Z,8.87
2018-04-26T15:54:24.052Z,10.33
2018-04-26T15:57:04.481Z,8.33
2018-04-26T16:03:06.776Z,10.43
2018-04-26T16:05:47.374Z,8.30
2018-04-26T16:11:49.265Z,9.23
2018-04-26T16:14:35.540Z,9.47
2018-04-26T16:17:32.334Z,14.23
2018-04-26T16:20:18.310Z,11.83
2018-04-26T16:23:04.563Z,12.73
2018-04-26T16:25:44.888Z,10.83
2018-04-26T16:28:31.116Z,12.83
2018-04-26T16:31:17.350Z,13.43
2018-04-26T16:33:57.818Z,11.70
2018-04-26T16:36:38.384Z,15.97
2018-04-26T16:39:13.264Z,13.10
2018-04-26T16:41:42.513Z,10.83
2018-04-26T16:44:12.108Z,14.73
2018-04-26T16:46:41.264Z,14.87
2018-04-26T16:49:10.439Z,14.57
2018-04-26T16:51:39.813Z,15.40
2018-04-26T16:54:09.144Z,13.43
2018-04-26T16:56:38.393Z,16.77
2018-04-26T16:59:07.657Z,16.10
2018-04-26T17:01:37.438Z,15.53
2018-04-26T17:04:06.796Z,13.60
2018-04-26T17:06:36.248Z,11.93
2018-04-26T17:09:05.675Z,16.93
2018-04-26T17:11:35.289Z,14.83
2018-04-26T17:14:04.873Z,14.20
2018-04-26T17:16:34.159Z,14.13
2018-04-26T17:19:03.646Z,12.10
2018-04-26T17:21:33.006Z,13.00
2018-04-26T17:24:02.229Z,14.33
2018-04-26T17:26:31.680Z,15.23
2018-04-26T17:29:01.127Z,17.17
2018-04-26T17:31:30.383Z,12.53
2018-04-26T17:33:59.688Z,13.13
2018-04-26T17:36:28.814Z,13.03
2018-04-26T17:38:57.995Z,15.70
2018-04-26T17:41:27.741Z,14.00
2018-04-26T17:43:57.198Z,16.23
2018-04-26T17:46:26.393Z,15.63
2018-04-26T17:48:55.461Z,13.87
2018-04-26T17:51:24.662Z,15.60
2018-04-26T17:53:53.741Z,12.97
2018-04-26T17:56:23.004Z,15.50
2018-04-26T17:58:52.313Z,13.93
2018-04-26T18:01:21.496Z,17.03
2018-04-26T18:03:51.194Z,13.97
2018-04-26T18:06:20.599Z,14.53
2018-04-26T18:08:49.801Z,12.90
2018-04-26T18:11:19.018Z,12.87
2018-04-26T18:13:48.249Z,17.40
2018-04-26T18:16:17.379Z,16.93
2018-04-26T18:18:46.497Z,14.97
2018-04-26T18:21:15.685Z,15.33
2018-04-26T18:23:44.970Z,14.10
2018-04-26T18:26:14.129Z,13.53
2018-04-26T18:28:43.366Z,13.90
2018-04-26T18:31:12.561Z,14.77
2018-04-26T18:33:41.757Z,17.70
2018-04-26T18:36:11.037Z,16.37
2018-04-26T18:38:40.112Z,16.37
2018-04-26T18:41:09.214Z,16.93
2018-04-26T18:43:38.413Z,16.60
2018-04-26T18:46:07.605Z,16.30
2018-04-26T18:48:36.802Z,19.37
2018-04-26T18:51:05.930Z,16.80
2018-04-26T18:53:35.108Z,15.10
2018-04-26T18:56:04.392Z,15.87
2018-04-26T18:58:33.495Z,17.30
2018-04-26T19:01:02.671Z,17.93
2018-04-26T19:03:32.114Z,16.37
2018-04-26T19:06:01.233Z,17.27
2018-04-26T19:08:30.425Z,14.77
2018-04-26T19:11:00.016Z,18.90
2018-04-26T19:13:29.119Z,15.33
2018-04-26T19:15:58.581Z,14.80
2018-04-26T19:18:27.976Z,15.80
2018-04-26T19:20:57.134Z,13.10
2018-04-26T19:23:26.457Z,15.33
2018-04-26T19:25:55.712Z,15.47
2018-04-26T19:28:24.940Z,14.03
2018-04-26T19:30:54.285Z,14.37
2018-04-26T19:33:23.674Z,20.43
2018-04-26T19:35:52.914Z,19.37
2018-04-26T19:38:21.950Z,16.87
2018-04-26T19:40:51.281Z,14.73
2018-04-26T19:43:20.367Z,12.77
2018-04-26T19:45:49.593Z,15.53
2018-04-26T19:48:18.766Z,13.00
2018-04-26T19:50:47.899Z,14.70
2018-04-26T19:53:17.111Z,11.30
2018-04-26T19:55:46.259Z,15.47
2018-04-26T19:58:15.396Z,14.37
2018-04-26T20:00:44.453Z,11.83
2018-04-26T20:03:13.716Z,12.97
2018-04-26T20:05:42.787Z,13.80
2018-04-26T20:08:11.892Z,13.37
2018-04-26T20:10:40.943Z,16.73
2018-04-26T20:13:10.140Z,16.67
2018-04-26T20:15:39.331Z,14.67
2018-04-26T20:18:08.388Z,14.97
2018-04-26T20:20:37.745Z,12.20
2018-04-26T20:23:06.819Z,11.77
2018-04-26T20:25:35.940Z,12.13
2018-04-26T20:28:04.913Z,11.33
2018-04-26T20:30:33.912Z,11.03
2018-04-26T20:33:03.135Z,11.80
2018-04-26T20:35:32.328Z,12.70
2018-04-26T20:38:01.448Z,12.97
2018-04-26T20:40:30.576Z,12.77
2018-04-26T20:42:59.881Z,13.47
2018-04-26T20:45:28.768Z,14.87
2018-04-26T20:47:57.656Z,11.50
2018-04-26T20:50:26.590Z,17.20
2018-04-26T20:52:56.017Z,13.07
2018-04-26T20:55:26.009Z,9.53
2018-04-26T20:57:55.291Z,13.37
2018-04-26T21:00:27.581Z,16.00
2018-04-26T21:02:56.804Z,11.67
2018-04-26T21:05:25.963Z,14.13
2018-04-26T21:07:55.147Z,13.97
2018-04-26T21:10:24.502Z,14.30
2018-04-26T21:12:53.656Z,12.67
2018-04-26T21:15:22.900Z,13.83
2018-04-26T21:17:51.992Z,11.90
2018-04-26T21:20:21.280Z,14.70
2018-04-26T21:22:50.665Z,11.83
2018-04-26T21:25:20.736Z,14.97
2018-04-26T21:27:50.158Z,13.43
2018-04-26T21:30:20.278Z,14.73
2018-04-26T21:32:49.440Z,12.27
2018-04-26T21:35:18.604Z,17.63
2018-04-26T21:37:47.841Z,11.63
2018-04-26T21:40:17.081Z,14.37
2018-04-26T21:42:46.220Z,13.67
2018-04-26T21:45:15.400Z,13.13
2018-04-26T21:47:44.513Z,13.60
2018-04-26T21:50:19.505Z,13.60
2018-04-26T21:52:54.312Z,12.40
2018-04-26T21:55:30.535Z,13.53
2018-04-26T21:58:05.335Z,13.53
2018-04-26T22:00:40.409Z,11.80
2018-04-26T22:03:09.703Z,13.97
2018-04-26T22:05:39.473Z,13.63
2018-04-26T22:08:08.545Z,13.93
2018-04-26T22:10:37.655Z,10.07
2018-04-26T22:13:06.803Z,12.43
2018-04-26T22:15:35.919Z,12.73
2018-04-26T22:18:05.320Z,15.07
2018-04-26T22:20:34.472Z,13.73
2018-04-26T22:23:03.726Z,11.83
2018-04-26T22:25:32.781Z,12.83
2018-04-26T22:28:02.072Z,16.17
2018-04-26T22:30:31.565Z,10.33
2018-04-26T22:33:00.828Z,11.80
2018-04-26T22:35:30.103Z,11.97
2018-04-26T22:37:59.096Z,11.33
2018-04-26T22:40:28.302Z,9.53
2018-04-26T22:42:57.503Z,11.30
2018-04-26T22:45:26.784Z,11.33
2018-04-26T22:47:56.136Z,10.13
2018-04-26T22:50:25.341Z,12.30
2018-04-26T22:52:54.811Z,9.93
2018-04-26T22:55:25.466Z,12.77
2018-04-26T22:57:54.769Z,11.03
2018-04-26T23:00:24.140Z,13.97
2018-04-26T23:02:53.507Z,12.03
2018-04-26T23:05:22.966Z,11.70
2018-04-26T23:07:52.151Z,17.03
2018-04-26T23:10:21.772Z,11.57
2018-04-26T23:12:51.425Z,13.03
2018-04-26T23:15:20.760Z,14.47
2018-04-26T23:17:49.799Z,16.73
2018-04-26T23:20:19.000Z,13.00
2018-04-26T23:22:48.152Z,13.27
2018-04-26T23:25:17.378Z,19.17
2018-04-26T23:27:46.492Z,10.60
2018-04-26T23:30:15.880Z,14.77
2018-04-26T23:32:45.080Z,12.87
2018-04-26T23:35:14.224Z,11.87
2018-04-26T23:37:43.252Z,13.13
2018-04-26T23:40:13.120Z,16.33
2018-04-26T23:42:42.271Z,15.93
2018-04-26T23:45:11.552Z,16.37
2018-04-26T23:47:40.761Z,17.80
2018-04-26T23:50:10.092Z,16.87
2018-04-26T23:52:39.132Z,17.87
2018-04-26T23:55:08.224Z,18.70
2018-04-26T23:57:37.775Z,19.57
